• Join FlightAware (Why Join?)
  • Login
  • US Flag 
08:41AM EDT


 

Airport Tracker/Info


-or-


 

Live Flight TrackerFlight Track Log ✈ NKS434 ✈ 20-Jul-2014 ✈ MNMG / MGA - KFLL

Flight Track Log - Related Links

Times and Time Zones

All times are in EDT time to prevent confusion due to time zone crossing. See the NKS434 flight status page for this flight to view local times or setup timezone preferences in your user account.

Time Position Orientation Groundspeed Altitude Reporting Facility
EDT Latitude Longitude Course Direction KTS MPH feet Rate Location/Type
03:42AM 14.0237 -85.4191 20° North  Level FlightAware Approximate
03:43AM 14.1425 -85.3714 24° Northeast  Level FlightAware Approximate
03:44AM 14.2590 -85.3177 24° Northeast  Level FlightAware Approximate
03:45AM 14.3766 -85.2669 20° North  Level FlightAware Approximate
03:46AM 14.4963 -85.2213 20° North  Level FlightAware Approximate
03:47AM 14.6160 -85.1757 20° North  Level FlightAware Approximate
03:48AM 14.7353 -85.1292 21° North  Level FlightAware Approximate
03:49AM 14.8543 -85.0816 21° North  Level FlightAware Approximate
03:50AM 14.9733 -85.0340 21° North  Level FlightAware Approximate
03:51AM 15.0924 -84.9865 21° North  Level FlightAware Approximate
03:52AM 15.2114 -84.9389 21° North  Level FlightAware Approximate
03:53AM 15.3304 -84.8913 21° North  Level FlightAware Approximate
03:54AM 15.4494 -84.8436 21° North  Level FlightAware Approximate
03:55AM 15.5684 -84.7959 21° North  Level FlightAware Approximate
03:56AM 15.6874 -84.7481 21° North  Level FlightAware Approximate
03:57AM 15.8063 -84.7002 21° North  Level FlightAware Approximate
03:58AM 15.9253 -84.6523 21° North  Level FlightAware Approximate
03:59AM 16.0443 -84.6043 21° North  Level FlightAware Approximate
04:00AM 16.1632 -84.5563 21° North  Level FlightAware Approximate
04:01AM 16.2821 -84.5082 21° North  Level FlightAware Approximate
04:02AM 16.4011 -84.4601 21° North  Level FlightAware Approximate
04:03AM 16.5200 -84.4119 21° North  Level FlightAware Approximate
04:04AM 16.6388 -84.3636 21° North  Level FlightAware Approximate
04:05AM 16.7577 -84.3153 21° North  Level FlightAware Approximate
04:06AM 16.8766 -84.2670 21° North  Level FlightAware Approximate
04:07AM 16.9955 -84.2185 21° North  Level FlightAware Approximate
04:08AM 17.1142 -84.1697 21° North  Level FlightAware Approximate
04:09AM 17.2329 -84.1208 21° North  Level FlightAware Approximate
04:10AM 17.3516 -84.0718 21° North  Level FlightAware Approximate
04:11AM 17.4703 -84.0227 22° Northeast  Level FlightAware Approximate
04:12AM 17.5889 -83.9736 22° Northeast  Level FlightAware Approximate
04:13AM 17.7076 -83.9244 22° Northeast  Level FlightAware Approximate
04:14AM 17.8262 -83.8752 22° Northeast  Level FlightAware Approximate
04:15AM 17.9449 -83.8259 22° Northeast  Level FlightAware Approximate
04:16AM 18.0635 -83.7765 22° Northeast  Level FlightAware Approximate
04:17AM 18.1821 -83.7271 22° Northeast  Level FlightAware Approximate
04:18AM 18.3007 -83.6776 22° Northeast  Level FlightAware Approximate
04:19AM 18.4194 -83.6283 21° North  Level FlightAware Approximate
04:20AM 18.5382 -83.5794 21° North  Level FlightAware Approximate
04:21AM 18.6571 -83.5304 21° North  Level FlightAware Approximate
04:22AM 18.7759 -83.4814 21° North  Level FlightAware Approximate
04:23AM 18.8947 -83.4323 21° North  Level FlightAware Approximate
04:24AM 19.0135 -83.3831 21° North  Level FlightAware Approximate
04:25AM 19.1322 -83.3338 21° North  Level FlightAware Approximate
04:26AM 19.2510 -83.2845 21° North  Level FlightAware Approximate
04:27AM 19.3698 -83.2351 21° North  Level FlightAware Approximate
04:28AM 19.4885 -83.1856 21° North  Level FlightAware Approximate
04:29AM 19.6072 -83.1360 21° North  Level FlightAware Approximate
04:30AM 19.7259 -83.0864 21° North  Level FlightAware Approximate
04:31AM 19.8443 -83.0359 22° Northeast  Level FlightAware Approximate
04:32AM 19.9627 -82.9852 22° Northeast  Level FlightAware Approximate
04:33AM 20.0810 -82.9345 22° Northeast  Level FlightAware Approximate
04:34AM 20.1993 -82.8836 22° Northeast  Level FlightAware Approximate
04:35AM 20.3172 -82.8316 22° Northeast  Level FlightAware Approximate
04:36AM 20.4350 -82.7795 23° Northeast  Level FlightAware Approximate
04:37AM 20.5529 -82.7273 23° Northeast  Level FlightAware Approximate
04:38AM 20.6707 -82.6750 23° Northeast  Level FlightAware Approximate
04:39AM 20.7885 -82.6227 23° Northeast  Level FlightAware Approximate
04:39AM 20.7459 -82.2201 15° North 455 524 34,000  Level FlightAware ADS-B (KEYW)
04:39AM 20.8005 -82.2036 15° North 455 524 34,000  Level FlightAware ADS-B (KEYW)
04:42AM 21.1325 -82.1034 15° North 457 526 34,000  Level FlightAware ADS-B (KEYW)
04:42AM 21.1405 -82.1010 15° North 457 526 34,000  Level FlightAware ADS-B (KEYW)
04:45AM 21.4227 -82.0154 15° North 460 529 34,000  Level FlightAware ADS-B (KEYW)
04:45AM 21.4905 -81.9948 15° North 460 529 34,000  Level FlightAware ADS-B (KEYW)
04:46AM 21.5495 -81.9768 15° North 461 531 34,000  Level FlightAware ADS-B (KEYW)
04:46AM 21.6149 -81.9570 15° North 460 529 34,000  Level FlightAware ADS-B (KEYW)
04:47AM 21.6766 -81.9382 15° North 460 529 34,000  Level FlightAware ADS-B (KEYW)
04:47AM 21.7395 -81.9190 15° North 459 528 34,000  Level FlightAware ADS-B (KEYW)
04:47AM 21.7788 -81.9070 15° North 458 527 34,000  Level FlightAware ADS-B (KEYW)
04:48AM 21.8617 -81.8816 15° North 458 527 34,000  Level FlightAware ADS-B (KEYW)
04:49AM 21.9211 -81.8634 15° North 458 527 34,000  Level FlightAware ADS-B (KEYW)
04:49AM 21.9838 -81.8442 15° North 458 527 34,000  Level FlightAware ADS-B (KEYW)
04:50AM 22.0458 -81.8252 15° North 458 527 34,000  Level FlightAware ADS-B (KEYW)
04:50AM 22.1038 -81.8074 15° North 458 527 34,000  Level FlightAware ADS-B (KEYW)
04:51AM 22.1584 -81.7907 15° North 459 528 34,000  Level FlightAware ADS-B (KEYW)
04:51AM 22.2170 -81.7728 15° North 458 527 34,000  Level FlightAware ADS-B (KEYW)
04:52AM 22.2856 -81.7516 16° North 458 527 34,000  Level FlightAware ADS-B (KEYW)
04:52AM 22.3479 -81.7324 16° North 459 528 34,000  Level FlightAware ADS-B (KEYW)
04:53AM 22.4138 -81.7121 15° North 460 529 34,000  Level FlightAware ADS-B (KEYW)
04:53AM 22.4671 -81.6957 15° North 460 529 34,000  Level FlightAware ADS-B (KEYW)
04:54AM 22.5380 -81.6738 16° North 459 528 34,000  Level FlightAware ADS-B (KEYW)
04:54AM 22.5996 -81.6547 16° North 458 527 34,000  Level FlightAware ADS-B (KEYW)
04:55AM 22.6602 -81.6360 16° North 458 527 34,000  Level FlightAware ADS-B (KEYW)
04:55AM 22.7211 -81.6171 16° North 458 527 34,000  Level FlightAware ADS-B (KEYW)
04:56AM 22.7813 -81.5984 16° North 458 527 34,000  Level FlightAware ADS-B (KEYW)
04:56AM 22.8434 -81.5792 16° North 458 527 34,000  Level FlightAware ADS-B (KEYW)
04:57AM 22.9054 -81.5600 16° North 458 527 34,000  Level FlightAware ADS-B (KEYW)
04:57AM 22.9657 -81.5412 16° North 458 527 34,000  Level FlightAware ADS-B (KEYW)
04:58AM 23.0279 -81.5219 16° North 458 527 34,000  Level FlightAware ADS-B (KEYW)
04:58AM 23.0885 -81.5030 16° North 458 527 34,000  Level FlightAware ADS-B (KEYW)
04:59AM 23.1483 -81.4843 16° North 457 526 34,000  Level FlightAware ADS-B (KEYW)
04:59AM 23.2127 -81.4643 16° North 458 527 34,000  Level FlightAware ADS-B (KEYW)
05:00AM 23.2736 -81.4454 16° North 457 526 34,000  Level FlightAware ADS-B (KEYW)
05:00AM 23.3341 -81.4264 16° North 457 526 34,000  Level FlightAware ADS-B (KEYW)
05:01AM 23.3951 -81.4073 16° North 457 526 34,000  Level FlightAware ADS-B (KEYW)
05:01AM 23.4571 -81.3878 16° North 457 526 34,000  Level FlightAware ADS-B (KEYW)
05:02AM 23.5177 -81.3688 16° North 457 526 34,000  Level FlightAware ADS-B (KEYW)
05:02AM 23.5777 -81.3500 16° North 458 527 34,000  Level FlightAware ADS-B (KEYW)
05:03AM 23.6406 -81.3302 16° North 458 527 34,000  Level FlightAware ADS-B (KEYW)
05:03AM 23.7005 -81.3114 16° North 457 526 34,000  Level FlightAware ADS-B (KEYW)
05:04AM 23.7624 -81.2920 16° North 458 527 34,000  Level FlightAware ADS-B (KEYW)
05:04AM 23.8229 -81.2729 16° North 458 527 34,000  Level FlightAware ADS-B (KEYW)
05:05AM 23.8860 -81.2530 16° North 456 525 34,000  Level FlightAware ADS-B (KEYW)
05:05AM 23.9451 -81.2343 16° North 456 525 34,000  Level FlightAware ADS-B (KEYW)
05:06AM 24.0070 -81.2163 12° North 456 525 34,000  Level FlightAware ADS-B (KEYW)
05:06AM 24.0906 -81.2001 10° North 457 526 34,000  Level FlightAware ADS-B (KEYW)
05:07AM 24.1535 -81.1874 10° North 457 526 34,000 -240 Level FlightAware ADS-B (KEYW)
05:07AM 24.2262 -81.1726 10° North 458 527 33,800 -1,140 Descending FlightAware ADS-B (KEYW)
05:08AM 24.2882 -81.1603 10° North 455 524 32,800 -2,040 Descending FlightAware ADS-B (KEYW)
05:08AM 24.3510 -81.1478 10° North 451 519 31,800 -2,040 Descending FlightAware ADS-B (KEYW)
05:09AM 24.4112 -81.1358 10° North 448 516 30,800 -2,040 Descending FlightAware ADS-B (KEYW)
05:09AM 24.4721 -81.1237 10° North 443 510 29,800 -2,100 Descending FlightAware ADS-B (KEYW)
05:10AM 24.5333 -81.1114 10° North 439 505 28,700 -2,100 Descending FlightAware ADS-B (KEYW)
05:10AM 24.5941 -81.0993 10° North 435 501 27,700 -2,040 Descending FlightAware ADS-B (KEYW)
05:11AM 24.6539 -81.0873 10° North 430 495 26,700 -1,980 Descending FlightAware ADS-B (KEYW)
05:11AM 24.7110 -81.0759 10° North 426 490 25,700 -2,040 Descending FlightAware ADS-B (KEYW)
05:12AM 24.7679 -81.0644 10° North 422 486 24,700 -2,040 Descending FlightAware ADS-B (KEYW)
05:12AM 24.8268 -81.0526 10° North 417 480 23,700 -1,980 Descending FlightAware ADS-B (KEYW)
05:13AM 24.8840 -81.0412 10° North 412 474 22,700 -2,040 Descending FlightAware ADS-B (KEYW)
05:13AM 24.9391 -81.0302 10° North 409 471 21,700 -2,040 Descending FlightAware ADS-B (KEYW)
05:14AM 24.9966 -81.0186 10° North 405 466 20,700 -2,040 Descending FlightAware ADS-B (KEYW)
05:14AM 25.0493 -81.0079 10° North 397 457 19,700 -1,980 Descending FlightAware ADS-B (KEYW)
05:15AM 25.0992 -80.9979 10° North 389 448 18,800 -1,920 Descending FlightAware ADS-B (KEYW)
05:15AM 25.1553 -80.9866 10° North 379 436 17,800 -1,980 Descending FlightAware ADS-B (KEYW)
05:16AM 25.2079 -80.9761 10° North 370 426 16,800 -1,920 Descending FlightAware ADS-B (KEYW)
05:16AM 25.2583 -80.9659 10° North 359 413 15,900 -1,740 Descending FlightAware ADS-B (KEYW)
05:17AM 25.3066 -80.9561 10° North 351 404 15,100 -1,620 Descending FlightAware ADS-B (KEYW)
05:17AM 25.3512 -80.9471 10° North 343 395 14,300 -1,740 Descending FlightAware ADS-B (KEYW)
05:18AM 25.3988 -80.9375 10° North 336 387 13,400 -1,740 Descending FlightAware ADS-B (KEYW)
05:18AM 25.4457 -80.9279 10° North 327 376 12,600 -1,500 Descending FlightAware ADS-B (KEYW)
05:19AM 25.4593 -80.9234 21° North 326 375 12,400 -1,200 Descending FlightAware ADS-B (KEYW)
05:19AM 25.4733 -80.9139 37° Northeast 329 379 12,200 -1,080 Descending FlightAware ADS-B (KEYW)
05:19AM 25.5083 -80.8828 38° Northeast 327 376 11,700 -1,140 Descending FlightAware ADS-B (KEYW)
05:20AM 25.5442 -80.8512 38° Northeast 324 373 11,100 -600 Descending FlightAware ADS-B (KEYW)
05:21AM 25.6025 -80.8003 38° Northeast 321 369 10,900 -180 Descending FlightAware ADS-B (KEYW)
05:21AM 25.6342 -80.7727 38° Northeast 320 368 10,900  Level FlightAware ADS-B (KEYW)
05:22AM 25.6718 -80.7397 38° Northeast 320 368 10,900  Level FlightAware ADS-B (KEYW)
05:22AM 25.7071 -80.7087 38° Northeast 320 368 10,900 -540 Level FlightAware ADS-B (KEYW)
05:23AM 25.7411 -80.6788 38° Northeast 313 360 10,400 -840 Descending FlightAware ADS-B (KEYW)
05:23AM 25.7695 -80.6538 38° Northeast 299 344 10,100 -840 Descending FlightAware ADS-B (KEYW)
05:23AM 25.7957 -80.6307 38° Northeast 284 327 9,700 -1,200 Descending FlightAware ADS-B (KEYW)
05:24AM 25.8092 -80.6189 38° Northeast 284 327 9,400 -1,620 Descending FlightAware ADS-B (KEYW)
05:24AM 25.8252 -80.6049 38° Northeast 282 325 8,900 -1,620 Descending FlightAware ADS-B (KEYW)
05:24AM 25.8520 -80.5811 38° Northeast 282 325 8,300 -1,500 Descending FlightAware ADS-B (KEYW)
05:25AM 25.8682 -80.5669 38° Northeast 278 320 7,900 -1,620 Descending FlightAware ADS-B (KEYW)
05:25AM 25.8833 -80.5535 38° Northeast 277 319 7,500 -1,200 Descending FlightAware ADS-B (KEYW)
05:25AM 25.9125 -80.5286 38° Northeast 277 319 6,900 -1,320 Descending Miami Center
05:26AM 25.9547 -80.4908 39° Northeast 277 319 5,800 -1,500 Descending Miami Center
05:26AM 25.9725 -80.4756 38° Northeast 268 308 5,400 -1,320 Descending Miami Center
05:27AM 26.0131 -80.4389 39° Northeast 267 307 4,500 -1,020 Descending Miami Center
05:27AM 26.0236 -80.4286 41° Northeast 260 299 4,500 -600 Level Miami Center
05:28AM 26.0636 -80.3936 38° Northeast 236 272 3,900 -840 Descending Miami Center
05:28AM 26.0728 -80.3836 44° Northeast 221 254 3,700 -1,140 Descending Miami Center
05:29AM 26.0775 -80.3358 84° East 202 232 2,800 -1,020 Descending Miami Center
05:29AM 26.0764 -80.3236 96° East 189 217 2,700 -1,020 Descending Miami Center
05:30AM 26.0775 -80.2769 88° East 195 224 1,800 -1,080 Descending Miami Center
05:30AM 26.0761 -80.2656 98° East 188 216 1,700 -840 Descending Miami Center
05:31AM 26.0772 -80.2250 88° East 171 197 1,000 -780 Descending Miami Center
05:31AM 26.0769 -80.2169 92° East 142 163 900 -720 Descending Miami Center
05:32AM 26.0772 -80.1822 89° East 142 163 300 -780 Descending Miami Center